createdAt,value
2023-03-12T00:04:16.128Z,57.45
2023-03-12T00:09:18.841Z,64.26
2023-03-12T00:14:21.548Z,56.38
2023-03-12T00:19:24.328Z,62.53
2023-03-12T00:24:27.071Z,58.80
2023-03-12T00:29:29.790Z,57.60
2023-03-12T00:34:32.537Z,63.69
2023-03-12T00:39:35.636Z,59.46
2023-03-12T00:44:38.689Z,62.25
2023-03-12T00:49:41.753Z,57.90
2023-03-12T00:54:44.458Z,58.61
2023-03-12T00:59:47.342Z,64.46
2023-03-12T01:04:50.059Z,57.58
2023-03-12T01:09:52.848Z,62.95
2023-03-12T01:14:55.656Z,58.04
2023-03-12T01:19:58.672Z,63.17
2023-03-12T01:25:01.388Z,58.79
2023-03-12T01:30:06.023Z,62.70
2023-03-12T01:35:09.341Z,58.65
2023-03-12T01:40:20.905Z,63.02
2023-03-12T01:45:58.079Z,59.36
2023-03-12T01:51:02.651Z,62.71
2023-03-12T01:56:08.639Z,59.35
2023-03-12T02:01:11.463Z,61.83
2023-03-12T02:06:15.919Z,61.25
2023-03-12T02:11:18.739Z,60.03
2023-03-12T02:16:21.554Z,60.90
2023-03-12T02:21:27.355Z,60.80
2023-03-12T02:26:31.237Z,61.63
2023-03-12T02:31:41.089Z,60.49
2023-03-12T02:36:43.920Z,63.26
2023-03-12T02:41:53.814Z,60.25
2023-03-12T02:46:59.295Z,62.21
2023-03-12T02:52:02.385Z,58.64
2023-03-12T02:57:05.269Z,63.55
2023-03-12T03:02:09.729Z,61.11
2023-03-12T03:07:12.642Z,59.58
2023-03-12T03:12:15.438Z,63.55
2023-03-12T03:17:18.398Z,60.24
2023-03-12T03:22:22.791Z,63.02
2023-03-12T03:27:25.691Z,60.08
2023-03-12T03:32:28.753Z,61.87
2023-03-12T03:37:31.514Z,61.42
2023-03-12T03:42:34.297Z,60.90
2023-03-12T03:47:37.128Z,61.04
2023-03-12T03:52:39.837Z,60.33
2023-03-12T03:57:42.538Z,61.42
2023-03-12T04:02:45.491Z,60.10
2023-03-12T04:07:48.527Z,62.73
2023-03-12T04:12:52.988Z,59.96
2023-03-12T04:17:55.887Z,62.32
2023-03-12T04:22:58.722Z,59.33
2023-03-12T04:28:02.080Z,62.24
2023-03-12T04:33:06.096Z,60.16
2023-03-12T04:38:08.807Z,62.74
2023-03-12T04:43:11.654Z,60.04
2023-03-12T04:48:14.492Z,60.87
2023-03-12T04:53:17.529Z,61.85
2023-03-12T04:58:20.805Z,59.17
2023-03-12T05:03:23.517Z,63.12
2023-03-12T05:08:26.312Z,59.95
2023-03-12T05:13:29.025Z,62.41
2023-03-12T05:18:31.718Z,59.88
2023-03-12T05:23:36.044Z,62.98
2023-03-12T05:28:38.847Z,59.85
2023-03-12T05:33:42.004Z,62.47
2023-03-12T05:38:45.026Z,59.23
2023-03-12T05:43:48.549Z,62.83
2023-03-12T05:48:51.599Z,60.14
2023-03-12T05:53:54.371Z,61.43
2023-03-12T05:58:57.098Z,60.47
2023-03-12T06:03:59.937Z,60.77
2023-03-12T06:09:04.726Z,60.48
2023-03-12T06:14:07.603Z,59.96
2023-03-12T06:19:14.139Z,60.93
2023-03-12T06:24:16.913Z,59.58
2023-03-12T06:29:19.597Z,62.06
2023-03-12T06:34:22.360Z,58.33
2023-03-12T06:39:25.419Z,61.86
2023-03-12T06:44:28.154Z,59.45
2023-03-12T06:49:33.381Z,61.35
2023-03-12T06:54:36.154Z,58.85
2023-03-12T06:59:38.831Z,61.50
2023-03-12T07:04:41.541Z,58.57
2023-03-12T07:09:44.496Z,60.53
2023-03-12T07:14:47.234Z,59.41
2023-03-12T07:19:50.110Z,60.64
2023-03-12T07:24:52.901Z,57.58
2023-03-12T07:29:55.587Z,61.71
2023-03-12T07:34:58.397Z,56.86
2023-03-12T07:40:01.198Z,58.46
2023-03-12T07:45:04.599Z,61.82
2023-03-12T07:50:07.882Z,58.06
2023-03-12T07:55:10.929Z,59.10
2023-03-12T08:00:15.427Z,61.80
2023-03-12T08:05:18.877Z,60.49
2023-03-12T08:10:22.512Z,55.95
2023-03-12T08:15:25.613Z,58.93
2023-03-12T08:20:28.702Z,60.01
2023-03-12T08:25:31.648Z,60.65
2023-03-12T08:30:34.404Z,61.50
2023-03-12T08:35:37.550Z,61.24
2023-03-12T08:40:40.532Z,61.06
2023-03-12T08:45:43.358Z,60.58
2023-03-12T08:50:46.036Z,61.38
2023-03-12T08:55:49.096Z,61.80
2023-03-12T09:00:52.673Z,60.84
2023-03-12T09:06:16.803Z,60.36
2023-03-12T09:11:19.671Z,60.92
2023-03-12T09:16:22.421Z,61.54
2023-03-12T09:21:25.267Z,61.13
2023-03-12T09:26:28.073Z,59.33
2023-03-12T09:31:30.871Z,57.98
2023-03-12T09:36:34.349Z,56.46
2023-03-12T09:41:40.549Z,55.51
2023-03-12T09:46:51.417Z,55.34
2023-03-12T09:51:57.124Z,54.02
2023-03-12T09:57:04.330Z,54.65
2023-03-12T10:02:30.249Z,53.26
2023-03-12T10:07:39.834Z,53.07
2023-03-12T10:12:54.500Z,53.34
2023-03-12T10:18:10.748Z,52.01
2023-03-12T10:23:52.027Z,52.93
2023-03-12T10:29:06.298Z,60.97
2023-03-12T10:34:19.159Z,58.21
2023-03-12T10:39:22.460Z,62.73
2023-03-12T10:44:25.698Z,57.38
2023-03-12T10:49:32.225Z,61.41
2023-03-12T10:54:40.891Z,55.55
2023-03-12T10:59:47.618Z,58.20
2023-03-12T11:04:52.181Z,59.58
2023-03-12T11:10:07.241Z,60.44
2023-03-12T11:15:22.192Z,58.98
2023-03-12T11:20:28.021Z,55.16
2023-03-12T11:25:31.912Z,51.99
2023-03-12T11:30:41.044Z,50.02
2023-03-12T11:35:52.551Z,49.10
2023-03-12T11:41:08.659Z,47.91
2023-03-12T11:46:50.380Z,51.96
2023-03-12T11:52:12.824Z,53.15
2023-03-12T11:57:46.286Z,51.45
2023-03-12T12:03:30.949Z,51.32
2023-03-12T12:08:55.389Z,50.67
2023-03-12T12:14:11.986Z,50.44
2023-03-12T12:19:34.128Z,50.38
2023-03-12T12:24:51.212Z,50.40
2023-03-12T12:30:16.247Z,48.51
2023-03-12T12:35:27.810Z,49.09
2023-03-12T12:40:45.239Z,48.26
2023-03-12T12:45:52.581Z,48.88
2023-03-12T12:50:55.863Z,49.67
2023-03-12T12:55:58.455Z,49.85
2023-03-12T13:01:02.637Z,50.12
2023-03-12T13:06:07.232Z,49.52
2023-03-12T13:11:19.464Z,49.20
2023-03-12T13:16:34.244Z,49.15
2023-03-12T13:21:58.857Z,48.06
2023-03-12T13:27:19.340Z,47.11
2023-03-12T13:32:34.599Z,47.67
2023-03-12T13:37:46.780Z,47.97
2023-03-12T13:43:05.842Z,48.15
2023-03-12T13:48:16.407Z,48.39
2023-03-12T13:53:32.695Z,49.50
2023-03-12T13:59:09.661Z,49.74
2023-03-12T14:04:20.756Z,50.58
2023-03-12T14:09:32.785Z,50.99
2023-03-12T14:15:05.493Z,50.95
2023-03-12T14:20:11.335Z,49.65
2023-03-12T14:25:36.167Z,49.36
2023-03-12T14:30:49.778Z,48.56
2023-03-12T14:36:07.829Z,48.54
2023-03-12T14:41:39.840Z,47.70
2023-03-12T14:46:49.139Z,47.78
2023-03-12T14:51:51.938Z,47.55
2023-03-12T14:56:54.731Z,47.15
2023-03-12T15:02:02.250Z,47.39
2023-03-12T15:07:10.746Z,47.46
2023-03-12T15:12:35.078Z,46.67
2023-03-12T15:17:38.086Z,46.13
2023-03-12T15:22:41.564Z,46.83
2023-03-12T15:27:44.396Z,47.55
2023-03-12T15:33:22.119Z,47.43
2023-03-12T15:38:25.636Z,48.54
2023-03-12T15:43:28.505Z,49.03
2023-03-12T15:48:35.061Z,49.44
2023-03-12T15:53:37.825Z,49.83
2023-03-12T15:58:42.075Z,50.18
2023-03-12T16:03:46.090Z,50.63
2023-03-12T16:08:53.109Z,51.02
2023-03-12T16:14:05.118Z,51.06
2023-03-12T16:19:20.394Z,51.30
2023-03-12T16:24:23.443Z,51.66
2023-03-12T16:29:35.646Z,52.12
2023-03-12T16:34:38.373Z,52.96
2023-03-12T16:39:41.245Z,54.49
2023-03-12T16:44:46.348Z,54.62
2023-03-12T16:49:49.290Z,54.54
2023-03-12T16:54:53.023Z,55.21
2023-03-12T16:59:55.746Z,56.32
2023-03-12T17:04:58.714Z,57.17
2023-03-12T17:10:01.495Z,57.59
2023-03-12T17:15:25.923Z,57.37
2023-03-12T17:20:34.916Z,59.02
2023-03-12T17:25:40.761Z,59.59
2023-03-12T17:30:44.287Z,59.38
2023-03-12T17:35:58.866Z,59.79
2023-03-12T17:41:02.173Z,60.39
2023-03-12T17:46:08.802Z,60.34
2023-03-12T17:51:11.739Z,59.30
2023-03-12T17:56:17.991Z,59.87
2023-03-12T18:01:21.080Z,61.90
2023-03-12T18:06:25.082Z,72.95
2023-03-12T18:11:28.097Z,64.55
2023-03-12T18:16:30.909Z,49.27
2023-03-12T18:21:33.742Z,50.90
2023-03-12T18:26:36.499Z,52.93
2023-03-12T18:31:39.288Z,54.56
2023-03-12T18:36:42.184Z,56.19
2023-03-12T18:41:44.995Z,56.83
2023-03-12T18:46:49.045Z,57.67
2023-03-12T18:51:55.962Z,58.18
2023-03-12T18:56:58.749Z,58.73
2023-03-12T19:02:01.554Z,59.18
2023-03-12T19:07:05.173Z,59.28
2023-03-12T19:12:07.979Z,59.46
2023-03-12T19:17:10.673Z,60.31
2023-03-12T19:22:13.472Z,61.91
2023-03-12T19:27:16.200Z,73.31
2023-03-12T19:32:18.933Z,63.80
2023-03-12T19:37:22.570Z,50.39
2023-03-12T19:42:25.423Z,52.28
2023-03-12T19:47:33.126Z,55.09
2023-03-12T19:52:35.838Z,57.19
2023-03-12T19:57:39.057Z,57.96
2023-03-12T20:02:42.200Z,58.83
2023-03-12T20:07:44.987Z,59.48
2023-03-12T20:12:47.706Z,58.61
2023-03-12T20:17:50.467Z,60.82
2023-03-12T20:22:53.213Z,60.74
2023-03-12T20:27:57.424Z,61.29
2023-03-12T20:33:00.843Z,72.93
2023-03-12T20:38:05.045Z,61.63
2023-03-12T20:43:07.742Z,50.94
2023-03-12T20:48:10.925Z,54.27
2023-03-12T20:53:13.762Z,56.63
2023-03-12T20:58:17.141Z,58.12
2023-03-12T21:03:20.560Z,59.10
2023-03-12T21:08:24.037Z,60.40
2023-03-12T21:13:26.853Z,60.80
2023-03-12T21:18:29.587Z,72.20
2023-03-12T21:23:33.405Z,62.55
2023-03-12T21:28:36.516Z,51.11
2023-03-12T21:33:39.287Z,54.43
2023-03-12T21:38:43.087Z,56.80
2023-03-12T21:43:47.248Z,56.71
2023-03-12T21:48:50.324Z,57.49
2023-03-12T21:53:57.680Z,57.97
2023-03-12T21:59:00.553Z,59.44
2023-03-12T22:04:05.579Z,60.44
2023-03-12T22:09:08.829Z,60.85
2023-03-12T22:14:11.525Z,61.67
2023-03-12T22:19:14.642Z,72.59
2023-03-12T22:24:17.392Z,64.64
2023-03-12T22:29:20.184Z,50.50
2023-03-12T22:34:22.930Z,52.51
2023-03-12T22:39:25.665Z,55.84
2023-03-12T22:44:28.364Z,57.30
2023-03-12T22:49:31.063Z,59.26
2023-03-12T22:54:33.871Z,60.01
2023-03-12T22:59:38.264Z,60.57
2023-03-12T23:04:41.069Z,60.86
2023-03-12T23:09:44.988Z,72.11
2023-03-12T23:14:47.803Z,62.32
2023-03-12T23:19:50.517Z,50.38
2023-03-12T23:24:53.327Z,53.20
2023-03-12T23:29:56.068Z,55.44
2023-03-12T23:34:58.803Z,58.12
2023-03-12T23:40:01.755Z,57.96
2023-03-12T23:45:05.086Z,58.21
2023-03-12T23:50:08.392Z,58.84
2023-03-12T23:55:11.090Z,60.54
